sensor_id;sensor_type;location;lat;lon;timestamp;pressure;altitude;pressure_sealevel;temperature;humidity
9822;BME280;4950;46.042;14.472;2023-05-23T00:01:35;97766.75;;;16.61;77.58
9822;BME280;4950;46.042;14.472;2023-05-23T00:04:03;97760.38;;;16.50;78.15
9822;BME280;4950;46.042;14.472;2023-05-23T00:06:31;97767.88;;;16.46;78.48
9822;BME280;4950;46.042;14.472;2023-05-23T00:08:58;97766.00;;;16.53;78.05
9822;BME280;4950;46.042;14.472;2023-05-23T00:11:25;97763.09;;;16.62;77.76
9822;BME280;4950;46.042;14.472;2023-05-23T00:13:53;97762.03;;;16.69;77.22
9822;BME280;4950;46.042;14.472;2023-05-23T00:16:21;97762.41;;;16.73;76.91
9822;BME280;4950;46.042;14.472;2023-05-23T00:18:48;97756.38;;;16.72;76.76
9822;BME280;4950;46.042;14.472;2023-05-23T00:21:17;97755.63;;;16.65;77.05
9822;BME280;4950;46.042;14.472;2023-05-23T00:23:44;97756.41;;;16.66;77.44
9822;BME280;4950;46.042;14.472;2023-05-23T00:26:11;97759.28;;;16.64;77.19
9822;BME280;4950;46.042;14.472;2023-05-23T00:28:37;97761.66;;;16.66;76.88
9822;BME280;4950;46.042;14.472;2023-05-23T00:31:04;97764.88;;;16.68;77.02
9822;BME280;4950;46.042;14.472;2023-05-23T00:33:31;97752.41;;;16.63;77.15
9822;BME280;4950;46.042;14.472;2023-05-23T00:35:58;97752.31;;;16.51;77.56
9822;BME280;4950;46.042;14.472;2023-05-23T00:38:26;97756.22;;;16.42;78.22
9822;BME280;4950;46.042;14.472;2023-05-23T00:40:53;97756.09;;;16.37;78.18
9822;BME280;4950;46.042;14.472;2023-05-23T00:43:19;97752.88;;;16.35;78.50
9822;BME280;4950;46.042;14.472;2023-05-23T00:45:47;97757.28;;;16.34;78.17
9822;BME280;4950;46.042;14.472;2023-05-23T00:48:14;97751.81;;;16.43;78.10
9822;BME280;4950;46.042;14.472;2023-05-23T00:50:41;97756.22;;;16.42;77.96
9822;BME280;4950;46.042;14.472;2023-05-23T00:53:08;97755.06;;;16.38;78.28
9822;BME280;4950;46.042;14.472;2023-05-23T00:55:36;97758.53;;;16.32;78.17
9822;BME280;4950;46.042;14.472;2023-05-23T00:58:04;97756.88;;;16.37;78.40
9822;BME280;4950;46.042;14.472;2023-05-23T01:00:31;97751.53;;;16.26;78.48
9822;BME280;4950;46.042;14.472;2023-05-23T01:02:58;97758.88;;;16.10;79.42
9822;BME280;4950;46.042;14.472;2023-05-23T01:05:25;97754.44;;;16.11;79.70
9822;BME280;4950;46.042;14.472;2023-05-23T01:07:53;97746.38;;;16.12;79.42
9822;BME280;4950;46.042;14.472;2023-05-23T01:10:22;97743.19;;;16.10;79.45
9822;BME280;4950;46.042;14.472;2023-05-23T01:12:53;97745.22;;;16.08;79.59
9822;BME280;4950;46.042;14.472;2023-05-23T01:15:24;97746.25;;;16.07;79.34
9822;BME280;4950;46.042;14.472;2023-05-23T01:17:59;97752.28;;;16.08;79.58
9822;BME280;4950;46.042;14.472;2023-05-23T01:20:36;97747.81;;;16.08;79.60
9822;BME280;4950;46.042;14.472;2023-05-23T01:23:12;97745.22;;;16.08;79.56
9822;BME280;4950;46.042;14.472;2023-05-23T01:25:53;97748.84;;;16.07;79.34
9822;BME280;4950;46.042;14.472;2023-05-23T01:28:28;97752.69;;;16.05;79.58
9822;BME280;4950;46.042;14.472;2023-05-23T01:30:59;97750.72;;;16.00;79.73
9822;BME280;4950;46.042;14.472;2023-05-23T01:33:27;97751.31;;;16.02;79.73
9822;BME280;4950;46.042;14.472;2023-05-23T01:35:55;97753.53;;;15.98;79.64
9822;BME280;4950;46.042;14.472;2023-05-23T01:38:59;97749.09;;;15.99;79.20
9822;BME280;4950;46.042;14.472;2023-05-23T01:41:46;97749.16;;;15.92;80.01
9822;BME280;4950;46.042;14.472;2023-05-23T01:44:15;97746.75;;;15.91;79.61
9822;BME280;4950;46.042;14.472;2023-05-23T01:46:42;97745.56;;;15.87;79.85
9822;BME280;4950;46.042;14.472;2023-05-23T01:49:11;97742.75;;;15.88;79.79
9822;BME280;4950;46.042;14.472;2023-05-23T01:51:39;97739.78;;;15.78;80.64
9822;BME280;4950;46.042;14.472;2023-05-23T01:54:06;97743.44;;;15.70;80.78
9822;BME280;4950;46.042;14.472;2023-05-23T01:56:33;97757.50;;;15.69;80.75
9822;BME280;4950;46.042;14.472;2023-05-23T01:59:00;97755.91;;;15.75;80.23
9822;BME280;4950;46.042;14.472;2023-05-23T02:01:29;97756.09;;;15.80;80.27
9822;BME280;4950;46.042;14.472;2023-05-23T02:03:56;97758.31;;;15.76;80.04
9822;BME280;4950;46.042;14.472;2023-05-23T02:06:22;97752.63;;;15.79;80.05
9822;BME280;4950;46.042;14.472;2023-05-23T02:08:49;97755.91;;;15.75;79.99
9822;BME280;4950;46.042;14.472;2023-05-23T02:11:15;97749.66;;;15.76;80.26
9822;BME280;4950;46.042;14.472;2023-05-23T02:13:42;97758.09;;;15.71;80.27
9822;BME280;4950;46.042;14.472;2023-05-23T02:16:08;97743.03;;;15.67;80.18
9822;BME280;4950;46.042;14.472;2023-05-23T02:18:37;97742.56;;;15.38;81.56
9822;BME280;4950;46.042;14.472;2023-05-23T02:21:04;97741.59;;;15.32;82.02
9822;BME280;4950;46.042;14.472;2023-05-23T02:23:30;97741.78;;;15.37;81.77
9822;BME280;4950;46.042;14.472;2023-05-23T02:25:57;97745.13;;;15.45;81.46
9822;BME280;4950;46.042;14.472;2023-05-23T02:28:23;97745.97;;;15.45;81.25
9822;BME280;4950;46.042;14.472;2023-05-23T02:30:50;97740.13;;;15.43;81.32
9822;BME280;4950;46.042;14.472;2023-05-23T02:33:16;97745.56;;;15.42;81.21
9822;BME280;4950;46.042;14.472;2023-05-23T02:35:45;97735.50;;;15.38;81.30
9822;BME280;4950;46.042;14.472;2023-05-23T02:38:11;97733.13;;;15.37;81.59
9822;BME280;4950;46.042;14.472;2023-05-23T02:40:38;97730.09;;;15.40;81.51
9822;BME280;4950;46.042;14.472;2023-05-23T02:43:05;97737.34;;;15.38;81.37
9822;BME280;4950;46.042;14.472;2023-05-23T02:45:31;97720.84;;;15.31;81.52
9822;BME280;4950;46.042;14.472;2023-05-23T02:47:58;97732.94;;;15.32;81.53
9822;BME280;4950;46.042;14.472;2023-05-23T02:50:24;97725.28;;;15.30;81.43
9822;BME280;4950;46.042;14.472;2023-05-23T02:52:52;97723.88;;;15.34;81.42
9822;BME280;4950;46.042;14.472;2023-05-23T02:55:19;97730.13;;;15.33;81.43
9822;BME280;4950;46.042;14.472;2023-05-23T02:57:45;97724.66;;;15.35;81.31
9822;BME280;4950;46.042;14.472;2023-05-23T03:00:13;97732.75;;;15.33;81.06
9822;BME280;4950;46.042;14.472;2023-05-23T03:02:39;97738.47;;;15.10;81.93
9822;BME280;4950;46.042;14.472;2023-05-23T03:05:07;97740.88;;;15.05;82.34
9822;BME280;4950;46.042;14.472;2023-05-23T03:07:34;97739.09;;;15.06;82.28
9822;BME280;4950;46.042;14.472;2023-05-23T03:10:02;97734.44;;;15.08;82.38
9822;BME280;4950;46.042;14.472;2023-05-23T03:12:29;97726.97;;;15.11;81.88
9822;BME280;4950;46.042;14.472;2023-05-23T03:14:55;97726.59;;;15.08;82.22
9822;BME280;4950;46.042;14.472;2023-05-23T03:17:23;97730.00;;;15.08;82.11
9822;BME280;4950;46.042;14.472;2023-05-23T03:19:50;97725.97;;;15.12;82.23
9822;BME280;4950;46.042;14.472;2023-05-23T03:22:17;97730.81;;;15.09;81.80
9822;BME280;4950;46.042;14.472;2023-05-23T03:24:43;97735.41;;;15.13;82.01
9822;BME280;4950;46.042;14.472;2023-05-23T03:27:11;97732.59;;;15.15;81.68
9822;BME280;4950;46.042;14.472;2023-05-23T03:29:38;97736.63;;;15.11;81.46
9822;BME280;4950;46.042;14.472;2023-05-23T03:32:05;97729.38;;;15.13;81.63
9822;BME280;4950;46.042;14.472;2023-05-23T03:34:33;97725.78;;;15.14;81.53
9822;BME280;4950;46.042;14.472;2023-05-23T03:37:00;97734.63;;;15.13;81.76
9822;BME280;4950;46.042;14.472;2023-05-23T03:39:27;97730.19;;;15.13;81.65
9822;BME280;4950;46.042;14.472;2023-05-23T03:41:53;97742.44;;;15.19;81.33
9822;BME280;4950;46.042;14.472;2023-05-23T03:44:21;97736.28;;;15.00;81.83
9822;BME280;4950;46.042;14.472;2023-05-23T03:46:48;97736.91;;;14.96;82.70
9822;BME280;4950;46.042;14.472;2023-05-23T03:49:14;97738.13;;;14.87;83.03
9822;BME280;4950;46.042;14.472;2023-05-23T03:51:41;97737.72;;;14.83;83.52
9822;BME280;4950;46.042;14.472;2023-05-23T03:54:07;97733.31;;;14.77;84.01
9822;BME280;4950;46.042;14.472;2023-05-23T03:56:34;97735.16;;;14.63;85.11
9822;BME280;4950;46.042;14.472;2023-05-23T03:59:01;97732.94;;;14.67;84.69
9822;BME280;4950;46.042;14.472;2023-05-23T04:01:28;97731.91;;;14.54;85.71
9822;BME280;4950;46.042;14.472;2023-05-23T04:03:58;97738.75;;;14.55;85.70
9822;BME280;4950;46.042;14.472;2023-05-23T04:06:25;97747.59;;;14.54;85.76
9822;BME280;4950;46.042;14.472;2023-05-23T04:08:54;97742.78;;;14.58;85.92
9822;BME280;4950;46.042;14.472;2023-05-23T04:11:20;97742.00;;;14.57;85.58
9822;BME280;4950;46.042;14.472;2023-05-23T04:13:48;97741.38;;;14.62;86.27
9822;BME280;4950;46.042;14.472;2023-05-23T04:16:16;97734.34;;;14.63;86.09
9822;BME280;4950;46.042;14.472;2023-05-23T04:18:44;97738.56;;;14.64;86.07
9822;BME280;4950;46.042;14.472;2023-05-23T04:21:11;97739.75;;;14.68;86.16
9822;BME280;4950;46.042;14.472;2023-05-23T04:23:37;97729.09;;;14.76;86.07
9822;BME280;4950;46.042;14.472;2023-05-23T04:26:04;97733.13;;;14.78;86.42
9822;BME280;4950;46.042;14.472;2023-05-23T04:28:31;97730.88;;;14.82;86.20
9822;BME280;4950;46.042;14.472;2023-05-23T04:30:57;97732.91;;;14.80;86.01
9822;BME280;4950;46.042;14.472;2023-05-23T04:33:26;97732.69;;;14.88;85.83
9822;BME280;4950;46.042;14.472;2023-05-23T04:35:56;97727.25;;;14.90;85.80
9822;BME280;4950;46.042;14.472;2023-05-23T04:38:22;97728.47;;;14.87;85.86
9822;BME280;4950;46.042;14.472;2023-05-23T04:40:49;97734.50;;;14.81;85.92
9822;BME280;4950;46.042;14.472;2023-05-23T04:43:16;97730.50;;;14.78;86.50
9822;BME280;4950;46.042;14.472;2023-05-23T04:45:44;97727.69;;;14.73;86.37
9822;BME280;4950;46.042;14.472;2023-05-23T04:48:10;97728.91;;;14.71;86.66
9822;BME280;4950;46.042;14.472;2023-05-23T04:50:41;97727.69;;;14.73;86.78
9822;BME280;4950;46.042;14.472;2023-05-23T04:53:09;97730.91;;;14.75;87.40
9822;BME280;4950;46.042;14.472;2023-05-23T04:55:35;97728.28;;;14.75;87.21
9822;BME280;4950;46.042;14.472;2023-05-23T04:58:02;97725.88;;;14.80;87.45
9822;BME280;4950;46.042;14.472;2023-05-23T05:00:29;97730.69;;;14.90;87.26
9822;BME280;4950;46.042;14.472;2023-05-23T05:02:55;97729.47;;;14.93;86.91
9822;BME280;4950;46.042;14.472;2023-05-23T05:05:22;97728.63;;;14.99;86.15
9822;BME280;4950;46.042;14.472;2023-05-23T05:07:48;97730.44;;;14.98;85.84
9822;BME280;4950;46.042;14.472;2023-05-23T05:10:16;97732.03;;;14.99;86.01
9822;BME280;4950;46.042;14.472;2023-05-23T05:12:43;97730.44;;;14.98;86.30
9822;BME280;4950;46.042;14.472;2023-05-23T05:15:11;97725.38;;;15.04;86.23
9822;BME280;4950;46.042;14.472;2023-05-23T05:17:37;97729.22;;;15.08;85.41
9822;BME280;4950;46.042;14.472;2023-05-23T05:20:05;97730.41;;;15.05;85.10
9822;BME280;4950;46.042;14.472;2023-05-23T05:22:33;97725.19;;;15.12;85.74
9822;BME280;4950;46.042;14.472;2023-05-23T05:24:59;97723.97;;;15.14;84.76
9822;BME280;4950;46.042;14.472;2023-05-23T05:27:29;97723.41;;;15.06;84.74
9822;BME280;4950;46.042;14.472;2023-05-23T05:29:56;97724.00;;;15.08;84.50
9822;BME280;4950;46.042;14.472;2023-05-23T05:32:22;97718.97;;;15.06;85.05
9822;BME280;4950;46.042;14.472;2023-05-23T05:34:49;97725.19;;;15.05;85.00
9822;BME280;4950;46.042;14.472;2023-05-23T05:37:16;97721.16;;;15.09;84.73
9822;BME280;4950;46.042;14.472;2023-05-23T05:39:42;97726.78;;;15.13;84.48
9822;BME280;4950;46.042;14.472;2023-05-23T05:42:09;97732.78;;;15.20;83.77
9822;BME280;4950;46.042;14.472;2023-05-23T05:44:37;97732.34;;;15.23;84.50
9822;BME280;4950;46.042;14.472;2023-05-23T05:47:04;97730.72;;;15.29;84.35
9822;BME280;4950;46.042;14.472;2023-05-23T05:49:30;97727.91;;;15.30;84.53
9822;BME280;4950;46.042;14.472;2023-05-23T05:51:57;97724.66;;;15.35;83.77
9822;BME280;4950;46.042;14.472;2023-05-23T05:54:23;97730.28;;;15.38;83.42
9822;BME280;4950;46.042;14.472;2023-05-23T05:56:50;97726.66;;;15.39;83.91
9822;BME280;4950;46.042;14.472;2023-05-23T05:59:17;97729.69;;;15.43;84.34
9822;BME280;4950;46.042;14.472;2023-05-23T06:01:44;97716.56;;;15.50;84.34
9822;BME280;4950;46.042;14.472;2023-05-23T06:04:11;97714.13;;;15.55;83.88
9822;BME280;4950;46.042;14.472;2023-05-23T06:06:38;97717.53;;;15.55;83.44
9822;BME280;4950;46.042;14.472;2023-05-23T06:09:04;97715.31;;;15.52;83.88
9822;BME280;4950;46.042;14.472;2023-05-23T06:11:31;97714.50;;;15.58;84.32
9822;BME280;4950;46.042;14.472;2023-05-23T06:13:57;97715.41;;;15.77;82.87
9822;BME280;4950;46.042;14.472;2023-05-23T06:16:24;97715.41;;;15.77;82.88
9822;BME280;4950;46.042;14.472;2023-05-23T06:18:52;97713.63;;;15.78;82.95
9822;BME280;4950;46.042;14.472;2023-05-23T06:21:18;97713.16;;;15.81;82.63
9822;BME280;4950;46.042;14.472;2023-05-23T06:23:45;97712.31;;;15.87;82.44
9822;BME280;4950;46.042;14.472;2023-05-23T06:26:12;97710.66;;;15.93;82.44
9822;BME280;4950;46.042;14.472;2023-05-23T06:28:38;97715.88;;;15.99;82.73
9822;BME280;4950;46.042;14.472;2023-05-23T06:31:05;97717.63;;;16.06;82.47
9822;BME280;4950;46.042;14.472;2023-05-23T06:33:34;97726.22;;;16.13;82.01
9822;BME280;4950;46.042;14.472;2023-05-23T06:36:02;97719.34;;;16.18;81.91
9822;BME280;4950;46.042;14.472;2023-05-23T06:38:30;97714.06;;;16.25;81.90
9822;BME280;4950;46.042;14.472;2023-05-23T06:40:58;97719.41;;;16.37;80.02
9822;BME280;4950;46.042;14.472;2023-05-23T06:43:24;97718.53;;;16.43;79.66
9822;BME280;4950;46.042;14.472;2023-05-23T06:45:51;97709.81;;;16.49;79.47
9822;BME280;4950;46.042;14.472;2023-05-23T06:48:17;97713.09;;;16.63;78.97
9822;BME280;4950;46.042;14.472;2023-05-23T06:50:44;97711.28;;;16.64;78.66
9822;BME280;4950;46.042;14.472;2023-05-23T06:53:13;97711.28;;;16.64;79.17
9822;BME280;4950;46.042;14.472;2023-05-23T06:55:40;97705.75;;;16.72;79.36
9822;BME280;4950;46.042;14.472;2023-05-23T06:58:07;97706.09;;;16.75;79.10
9822;BME280;4950;46.042;14.472;2023-05-23T07:00:33;97699.00;;;16.83;79.00
9822;BME280;4950;46.042;14.472;2023-05-23T07:03:00;97699.38;;;16.86;78.87
9822;BME280;4950;46.042;14.472;2023-05-23T07:05:27;97707.41;;;16.91;79.24
9822;BME280;4950;46.042;14.472;2023-05-23T07:07:54;97704.91;;;16.96;78.91
9822;BME280;4950;46.042;14.472;2023-05-23T07:10:22;97704.25;;;17.01;78.96
9822;BME280;4950;46.042;14.472;2023-05-23T07:12:50;97695.50;;;17.07;78.65
9822;BME280;4950;46.042;14.472;2023-05-23T07:15:17;97693.00;;;17.12;78.86
9822;BME280;4950;46.042;14.472;2023-05-23T07:17:44;97697.13;;;17.39;77.45
9822;BME280;4950;46.042;14.472;2023-05-23T07:20:10;97686.75;;;17.44;77.58
9822;BME280;4950;46.042;14.472;2023-05-23T07:22:37;97690.56;;;17.48;77.34
9822;BME280;4950;46.042;14.472;2023-05-23T07:25:05;97690.81;;;17.58;77.05
9822;BME280;4950;46.042;14.472;2023-05-23T07:27:33;97689.69;;;17.66;76.85
9822;BME280;4950;46.042;14.472;2023-05-23T07:30:00;97686.53;;;17.75;75.47
9822;BME280;4950;46.042;14.472;2023-05-23T07:32:27;97685.41;;;17.83;74.61
9822;BME280;4950;46.042;14.472;2023-05-23T07:34:53;97686.59;;;17.87;74.88
9822;BME280;4950;46.042;14.472;2023-05-23T07:37:20;97684.88;;;17.93;75.17
9822;BME280;4950;46.042;14.472;2023-05-23T07:39:46;97683.75;;;18.01;75.27
9822;BME280;4950;46.042;14.472;2023-05-23T07:42:13;97677.38;;;18.08;75.38
9822;BME280;4950;46.042;14.472;2023-05-23T07:44:41;97684.34;;;18.14;75.46
9822;BME280;4950;46.042;14.472;2023-05-23T07:47:08;97680.66;;;18.27;75.79
9822;BME280;4950;46.042;14.472;2023-05-23T07:49:34;97682.94;;;18.47;73.62
9822;BME280;4950;46.042;14.472;2023-05-23T07:52:01;97673.59;;;18.51;72.36
9822;BME280;4950;46.042;14.472;2023-05-23T07:54:28;97668.91;;;18.53;71.89
9822;BME280;4950;46.042;14.472;2023-05-23T07:56:54;97671.06;;;18.57;72.00
9822;BME280;4950;46.042;14.472;2023-05-23T07:59:21;97667.03;;;18.66;72.52
9822;BME280;4950;46.042;14.472;2023-05-23T08:01:49;97663.50;;;18.72;72.69
9822;BME280;4950;46.042;14.472;2023-05-23T08:04:16;97661.34;;;18.81;72.46
9822;BME280;4950;46.042;14.472;2023-05-23T08:06:42;97657.78;;;18.87;72.46
9822;BME280;4950;46.042;14.472;2023-05-23T08:09:11;97657.63;;;18.93;72.11
9822;BME280;4950;46.042;14.472;2023-05-23T08:11:38;97654.16;;;19.05;72.20
9822;BME280;4950;46.042;14.472;2023-05-23T08:14:04;97653.66;;;19.20;72.24
9822;BME280;4950;46.042;14.472;2023-05-23T08:16:31;97653.97;;;19.23;71.10
9822;BME280;4950;46.042;14.472;2023-05-23T08:18:59;97645.78;;;19.37;70.49
9822;BME280;4950;46.042;14.472;2023-05-23T08:21:25;97648.13;;;19.50;70.37
9822;BME280;4950;46.042;14.472;2023-05-23T08:23:52;97645.28;;;19.51;69.68
9822;BME280;4950;46.042;14.472;2023-05-23T08:26:18;97640.34;;;19.55;69.79
9822;BME280;4950;46.042;14.472;2023-05-23T08:28:46;97648.31;;;19.60;70.00
9822;BME280;4950;46.042;14.472;2023-05-23T08:31:12;97642.06;;;19.66;69.71
9822;BME280;4950;46.042;14.472;2023-05-23T08:33:39;97636.47;;;19.75;69.27
9822;BME280;4950;46.042;14.472;2023-05-23T08:36:07;97640.03;;;19.85;68.74
9822;BME280;4950;46.042;14.472;2023-05-23T08:38:33;97636.75;;;19.95;68.64
9822;BME280;4950;46.042;14.472;2023-05-23T08:41:00;97643.78;;;20.06;67.72
9822;BME280;4950;46.042;14.472;2023-05-23T08:43:27;97635.00;;;20.18;67.43
9822;BME280;4950;46.042;14.472;2023-05-23T08:45:54;97632.59;;;20.33;67.58
9822;BME280;4950;46.042;14.472;2023-05-23T08:48:21;97635.66;;;20.47;67.61
9822;BME280;4950;46.042;14.472;2023-05-23T08:50:50;97629.97;;;20.55;67.63
9822;BME280;4950;46.042;14.472;2023-05-23T08:53:20;97630.34;;;20.64;67.25
9822;BME280;4950;46.042;14.472;2023-05-23T08:55:49;97628.34;;;20.71;64.15
9822;BME280;4950;46.042;14.472;2023-05-23T08:58:17;97626.31;;;20.78;62.63
9822;BME280;4950;46.042;14.472;2023-05-23T09:00:45;97623.53;;;20.90;61.74
9822;BME280;4950;46.042;14.472;2023-05-23T09:03:12;97619.69;;;21.03;62.03
9822;BME280;4950;46.042;14.472;2023-05-23T09:05:39;97620.38;;;21.15;62.28
9822;BME280;4950;46.042;14.472;2023-05-23T09:08:05;97619.81;;;21.40;60.97
9822;BME280;4950;46.042;14.472;2023-05-23T09:10:33;97615.88;;;21.70;59.83
9822;BME280;4950;46.042;14.472;2023-05-23T09:15:27;97608.56;;;21.82;59.44
9822;BME280;4950;46.042;14.472;2023-05-23T09:17:58;97609.69;;;21.92;59.76
9822;BME280;4950;46.042;14.472;2023-05-23T09:20:27;97606.03;;;21.98;59.16
9822;BME280;4950;46.042;14.472;2023-05-23T09:22:54;97600.53;;;22.09;57.81
9822;BME280;4950;46.042;14.472;2023-05-23T09:25:21;97601.66;;;22.19;58.52
9822;BME280;4950;46.042;14.472;2023-05-23T09:27:51;97603.84;;;22.27;56.31
9822;BME280;4950;46.042;14.472;2023-05-23T09:30:18;97598.34;;;22.39;58.79
9822;BME280;4950;46.042;14.472;2023-05-23T09:32:57;97600.81;;;22.56;54.49
9822;BME280;4950;46.042;14.472;2023-05-23T09:35:27;97593.16;;;22.64;54.65
9822;BME280;4950;46.042;14.472;2023-05-23T09:37:53;97590.31;;;22.81;54.48
9822;BME280;4950;46.042;14.472;2023-05-23T09:40:28;97595.63;;;22.92;53.98
9822;BME280;4950;46.042;14.472;2023-05-23T09:43:00;97591.72;;;23.04;53.88
9822;BME280;4950;46.042;14.472;2023-05-23T09:45:29;97588.28;;;23.09;52.87
9822;BME280;4950;46.042;14.472;2023-05-23T09:47:56;97590.41;;;23.17;51.18
9822;BME280;4950;46.042;14.472;2023-05-23T09:50:23;97573.97;;;23.25;52.92
9822;BME280;4950;46.042;14.472;2023-05-23T09:52:50;97580.88;;;23.37;52.72
9822;BME280;4950;46.042;14.472;2023-05-23T09:55:18;97571.09;;;23.58;52.27
9822;BME280;4950;46.042;14.472;2023-05-23T09:57:48;97576.91;;;23.70;51.29
9822;BME280;4950;46.042;14.472;2023-05-23T10:00:19;97571.09;;;23.78;49.98
9822;BME280;4950;46.042;14.472;2023-05-23T10:03:01;97568.16;;;23.75;50.93
9822;BME280;4950;46.042;14.472;2023-05-23T10:05:37;97572.94;;;23.83;48.57
9822;BME280;4950;46.042;14.472;2023-05-23T10:08:07;97572.94;;;23.88;47.98
9822;BME280;4950;46.042;14.472;2023-05-23T10:13:43;97561.28;;;23.89;48.20
9822;BME280;4950;46.042;14.472;2023-05-23T10:16:14;97563.09;;;23.99;47.72
9822;BME280;4950;46.042;14.472;2023-05-23T10:18:44;97559.91;;;24.07;48.43
9822;BME280;4950;46.042;14.472;2023-05-23T10:21:18;97555.59;;;24.21;49.81
9822;BME280;4950;46.042;14.472;2023-05-23T10:23:46;97557.69;;;24.35;49.02
9822;BME280;4950;46.042;14.472;2023-05-23T10:26:14;97550.47;;;24.51;47.29
9822;BME280;4950;46.042;14.472;2023-05-23T10:28:41;97554.66;;;24.62;46.51
9822;BME280;4950;46.042;14.472;2023-05-23T10:31:08;97545.78;;;24.87;45.92
9822;BME280;4950;46.042;14.472;2023-05-23T10:33:44;97549.91;;;25.03;44.92
9822;BME280;4950;46.042;14.472;2023-05-23T10:36:23;97549.59;;;25.10;45.20
9822;BME280;4950;46.042;14.472;2023-05-23T10:38:59;97543.47;;;25.15;45.67
9822;BME280;4950;46.042;14.472;2023-05-23T10:41:30;97533.00;;;25.29;45.65
9822;BME280;4950;46.042;14.472;2023-05-23T10:44:05;97532.66;;;25.40;44.40
9822;BME280;4950;46.042;14.472;2023-05-23T10:46:51;97530.72;;;25.51;44.65
9822;BME280;4950;46.042;14.472;2023-05-23T10:49:20;97530.00;;;25.70;44.49
9822;BME280;4950;46.042;14.472;2023-05-23T10:51:48;97521.63;;;25.81;44.36
9822;BME280;4950;46.042;14.472;2023-05-23T10:54:17;97520.47;;;25.93;44.02
9822;BME280;4950;46.042;14.472;2023-05-23T10:56:44;97520.31;;;26.08;44.35
9822;BME280;4950;46.042;14.472;2023-05-23T10:59:19;97517.94;;;26.07;43.53
9822;BME280;4950;46.042;14.472;2023-05-23T11:01:46;97516.22;;;26.16;43.26
9822;BME280;4950;46.042;14.472;2023-05-23T11:04:25;97512.56;;;26.12;44.13
9822;BME280;4950;46.042;14.472;2023-05-23T11:06:53;97516.31;;;26.30;43.50
9822;BME280;4950;46.042;14.472;2023-05-23T11:09:20;97513.31;;;26.36;43.44
9822;BME280;4950;46.042;14.472;2023-05-23T11:12:00;97503.88;;;26.44;39.96
9822;BME280;4950;46.042;14.472;2023-05-23T11:14:49;97501.94;;;26.50;40.85
9822;BME280;4950;46.042;14.472;2023-05-23T11:17:17;97497.59;;;26.59;41.16
9822;BME280;4950;46.042;14.472;2023-05-23T11:20:02;97501.00;;;26.65;41.13
9822;BME280;4950;46.042;14.472;2023-05-23T11:22:31;97496.44;;;26.84;40.21
9822;BME280;4950;46.042;14.472;2023-05-23T11:24:58;97491.25;;;26.93;40.07
9822;BME280;4950;46.042;14.472;2023-05-23T11:27:27;97496.50;;;26.79;39.24
9822;BME280;4950;46.042;14.472;2023-05-23T11:29:56;97484.28;;;26.78;39.07
9822;BME280;4950;46.042;14.472;2023-05-23T11:32:23;97484.56;;;26.76;39.91
9822;BME280;4950;46.042;14.472;2023-05-23T11:34:50;97483.41;;;26.83;40.37
9822;BME280;4950;46.042;14.472;2023-05-23T11:37:19;97481.59;;;26.97;39.54
9822;BME280;4950;46.042;14.472;2023-05-23T11:39:48;97488.94;;;27.05;38.85
9822;BME280;4950;46.042;14.472;2023-05-23T11:42:14;97476.88;;;27.08;38.43
9822;BME280;4950;46.042;14.472;2023-05-23T11:44:41;97478.66;;;27.12;39.03
9822;BME280;4950;46.042;14.472;2023-05-23T11:47:09;97471.19;;;27.14;38.21
9822;BME280;4950;46.042;14.472;2023-05-23T11:49:37;97477.38;;;27.29;37.20
9822;BME280;4950;46.042;14.472;2023-05-23T11:52:04;97469.19;;;27.39;35.83
9822;BME280;4950;46.042;14.472;2023-05-23T11:54:33;97463.88;;;27.20;37.19
9822;BME280;4950;46.042;14.472;2023-05-23T11:57:00;97463.09;;;27.19;39.03
9822;BME280;4950;46.042;14.472;2023-05-23T11:59:27;97461.13;;;27.11;38.10
9822;BME280;4950;46.042;14.472;2023-05-23T12:01:54;97464.94;;;27.05;38.94
9822;BME280;4950;46.042;14.472;2023-05-23T12:04:21;97456.00;;;27.15;37.60
9822;BME280;4950;46.042;14.472;2023-05-23T12:06:50;97448.50;;;27.17;38.91
9822;BME280;4950;46.042;14.472;2023-05-23T12:09:17;97454.25;;;27.24;39.10
9822;BME280;4950;46.042;14.472;2023-05-23T12:11:45;97454.38;;;27.33;37.53
9822;BME280;4950;46.042;14.472;2023-05-23T12:14:15;97442.94;;;27.32;37.17
9822;BME280;4950;46.042;14.472;2023-05-23T12:16:43;97442.25;;;27.41;37.76
9822;BME280;4950;46.042;14.472;2023-05-23T12:19:10;97441.84;;;27.47;37.05
9822;BME280;4950;46.042;14.472;2023-05-23T12:21:41;97436.50;;;27.47;37.72
9822;BME280;4950;46.042;14.472;2023-05-23T12:24:14;97434.03;;;27.51;39.01
9822;BME280;4950;46.042;14.472;2023-05-23T12:26:52;97430.31;;;27.66;38.60
9822;BME280;4950;46.042;14.472;2023-05-23T12:29:20;97424.06;;;27.70;38.18
9822;BME280;4950;46.042;14.472;2023-05-23T12:31:50;97422.59;;;27.78;36.76
9822;BME280;4950;46.042;14.472;2023-05-23T12:34:19;97426.25;;;27.96;35.05
9822;BME280;4950;46.042;14.472;2023-05-23T12:36:45;97420.53;;;28.03;35.19
9822;BME280;4950;46.042;14.472;2023-05-23T12:39:13;97407.06;;;28.08;34.86
9822;BME280;4950;46.042;14.472;2023-05-23T12:41:40;97409.66;;;27.99;34.84
9822;BME280;4950;46.042;14.472;2023-05-23T12:44:10;97406.06;;;28.04;34.97
9822;BME280;4950;46.042;14.472;2023-05-23T12:46:40;97405.00;;;28.05;35.50
9822;BME280;4950;46.042;14.472;2023-05-23T12:49:07;97407.53;;;28.10;35.34
9822;BME280;4950;46.042;14.472;2023-05-23T12:51:33;97411.81;;;28.11;34.00
9822;BME280;4950;46.042;14.472;2023-05-23T12:54:00;97417.16;;;28.11;33.00
9822;BME280;4950;46.042;14.472;2023-05-23T12:56:27;97412.00;;;28.14;33.75
9822;BME280;4950;46.042;14.472;2023-05-23T12:58:54;97410.59;;;28.17;34.37
9822;BME280;4950;46.042;14.472;2023-05-23T13:01:21;97419.88;;;28.20;35.01
9822;BME280;4950;46.042;14.472;2023-05-23T13:03:48;97408.81;;;28.26;35.70
9822;BME280;4950;46.042;14.472;2023-05-23T13:06:15;97419.25;;;28.36;37.20
9822;BME280;4950;46.042;14.472;2023-05-23T13:08:41;97421.34;;;28.40;36.66
9822;BME280;4950;46.042;14.472;2023-05-23T13:11:08;97420.22;;;28.41;35.59
9822;BME280;4950;46.042;14.472;2023-05-23T13:13:35;97422.09;;;28.54;36.59
9822;BME280;4950;46.042;14.472;2023-05-23T13:16:01;97432.16;;;28.57;36.28
9822;BME280;4950;46.042;14.472;2023-05-23T13:18:29;97430.03;;;28.68;37.39
9822;BME280;4950;46.042;14.472;2023-05-23T13:20:56;97421.06;;;28.64;36.25